Time;durP1;ratioP1;P1;durP2;ratioP2;P2;SDS_P1;SDS_P2;PMS_P1;PMS_P2;Temp;Humidity;BMP_temperature;BMP_pressure;BME280_temperature;BME280_humidity;BME280_pressure;Samples;Min_cycle;Max_cycle;Signal;HPM_P1;HPM_P2
2022/05/17 00:01:12;;;;;;;20.45;7.35;;;15.60;99.90;;;;;;5033941;28;20051;-82
2022/05/17 00:03:37;;;;;;;20.48;6.75;;;15.60;99.90;;;;;;5051180;28;20171;-82
2022/05/17 00:06:05;;;;;;;18.83;6.68;;;15.60;99.90;;;;;;5033814;28;20041;-81
2022/05/17 00:08:31;;;;;;;20.92;6.93;;;15.50;99.90;;;;;;5051043;28;20047;-83
2022/05/17 00:10:57;;;;;;;14.20;5.93;;;15.50;99.90;;;;;;5051318;28;20028;-83
2022/05/17 00:13:22;;;;;;;19.10;7.18;;;15.50;99.90;;;;;;5017699;28;20039;-82
2022/05/17 00:15:51;;;;;;;16.88;6.40;;;15.40;99.90;;;;;;5050777;28;20122;-82
2022/05/17 00:18:19;;;;;;;20.73;6.32;;;15.30;99.90;;;;;;5048226;28;20120;-82
2022/05/17 00:20:45;;;;;;;17.08;6.53;;;15.30;99.90;;;;;;5050744;28;20053;-82
2022/05/17 00:23:15;;;;;;;22.10;6.85;;;15.30;99.90;;;;;;5050258;28;20048;-83
2022/05/17 00:25:42;;;;;;;15.07;6.53;;;15.30;99.90;;;;;;5034609;28;20111;-83
2022/05/17 00:28:08;;;;;;;18.70;7.55;;;15.30;99.90;;;;;;5033681;28;20064;-83
2022/05/17 00:30:34;;;;;;;18.83;6.90;;;15.40;99.90;;;;;;5050510;28;20040;-83
2022/05/17 00:33:00;;;;;;;18.15;7.72;;;15.30;99.90;;;;;;5050737;28;20120;-82
2022/05/17 00:35:26;;;;;;;20.17;7.55;;;15.20;99.90;;;;;;5050184;28;20076;-82
2022/05/17 00:37:51;;;;;;;17.80;7.43;;;15.20;99.90;;;;;;5048068;28;20519;-82
2022/05/17 00:40:17;;;;;;;19.90;7.65;;;15.10;99.90;;;;;;5016835;28;20037;-82
2022/05/17 00:42:43;;;;;;;23.33;7.65;;;15.00;99.90;;;;;;5050334;28;20434;-83
2022/05/17 00:45:09;;;;;;;25.02;7.95;;;15.00;99.90;;;;;;5033246;28;20554;-82
2022/05/17 00:47:38;;;;;;;21.30;7.97;;;15.00;99.90;;;;;;5017321;28;20041;-82
2022/05/17 00:50:20;;;;;;;19.23;7.65;;;15.00;99.90;;;;;;5050013;28;20044;-82
2022/05/17 00:52:54;;;;;;;18.70;7.80;;;15.00;99.90;;;;;;5048413;28;20036;-82
2022/05/17 00:55:34;;;;;;;20.95;7.60;;;15.00;99.90;;;;;;5049573;28;20123;-82
2022/05/17 00:58:07;;;;;;;18.40;8.20;;;15.00;99.90;;;;;;5050164;28;20049;-81
2022/05/17 01:00:53;;;;;;;21.67;8.43;;;14.90;99.90;;;;;;5033367;28;20040;-82
2022/05/17 01:03:21;;;;;;;20.63;8.07;;;14.90;99.90;;;;;;5049358;28;20041;-81
2022/05/17 01:05:52;;;;;;;22.73;8.23;;;14.90;99.90;;;;;;5049664;28;20036;-83
2022/05/17 01:08:20;;;;;;;17.48;8.02;;;14.80;99.90;;;;;;5049631;28;20485;-83
2022/05/17 01:10:45;;;;;;;20.90;8.32;;;14.80;99.90;;;;;;5032488;28;20163;-82
2022/05/17 01:15:56;;;;;;;24.23;8.40;;;14.80;99.90;;;;;;5048046;28;20052;-82
2022/05/17 01:18:23;;;;;;;19.02;8.77;;;14.80;99.90;;;;;;5049361;28;20044;-82
2022/05/17 01:20:48;;;;;;;;;;;14.70;99.90;;;;;;4998549;28;20049;-83
2022/05/17 01:23:14;;;;;;;19.33;8.88;;;14.70;99.90;;;;;;5049350;28;20299;-81
2022/05/17 01:25:40;;;;;;;19.52;8.02;;;14.70;99.90;;;;;;5049526;28;20082;-82
2022/05/17 01:28:15;;;;;;;25.13;9.82;;;14.70;99.90;;;;;;5033213;28;20044;-82
2022/05/17 01:30:41;;;;;;;22.27;8.93;;;14.70;99.90;;;;;;5049875;28;20503;-82
2022/05/17 01:33:13;;;;;;;25.02;9.27;;;14.80;99.90;;;;;;5049530;28;20097;-82
2022/05/17 01:35:38;;;;;;;20.75;8.65;;;14.70;99.90;;;;;;5032836;28;20044;-82
2022/05/17 01:38:04;;;;;;;19.00;8.65;;;14.70;99.90;;;;;;5049360;28;20425;-83
2022/05/17 01:40:30;;;;;;;15.95;8.05;;;14.70;99.90;;;;;;5048734;28;20040;-82
2022/05/17 01:42:55;;;;;;;22.25;8.30;;;14.70;99.90;;;;;;5049644;28;20048;-83
2022/05/17 01:45:21;;;;;;;22.42;8.10;;;14.60;99.90;;;;;;5032270;28;20044;-82
2022/05/17 01:47:47;;;;;;;22.48;8.15;;;14.60;99.90;;;;;;5016231;28;20036;-82
2022/05/17 01:50:13;;;;;;;25.58;8.32;;;14.60;99.90;;;;;;5048906;28;20048;-82
2022/05/17 01:52:39;;;;;;;20.77;7.63;;;14.50;99.90;;;;;;5049273;28;20039;-83
2022/05/17 01:55:05;;;;;;;27.23;9.10;;;14.60;99.90;;;;;;5049382;28;20404;-82
2022/05/17 01:57:30;;;;;;;18.45;7.82;;;14.60;99.90;;;;;;5048770;28;20037;-83
2022/05/17 01:59:56;;;;;;;18.15;8.35;;;14.60;99.90;;;;;;5049365;28;20459;-82
2022/05/17 02:02:22;;;;;;;20.42;8.20;;;14.60;99.90;;;;;;5032579;28;20044;-82
2022/05/17 02:04:48;;;;;;;21.63;8.43;;;14.60;99.90;;;;;;5015312;28;20040;-82
2022/05/17 02:07:14;;;;;;;21.65;8.45;;;14.60;99.90;;;;;;5047562;28;20052;-83
2022/05/17 02:09:39;;;;;;;18.10;7.80;;;14.60;99.90;;;;;;5048989;28;20374;-84
2022/05/17 02:12:06;;;;;;;22.13;8.00;;;14.50;99.90;;;;;;5032300;28;20033;-83
2022/05/17 02:14:31;;;;;;;;;;;14.50;99.90;;;;;;5048980;28;20082;-82
2022/05/17 02:17:00;;;;;;;18.40;7.70;;;14.50;99.90;;;;;;5048853;28;20334;-82
2022/05/17 02:19:25;;;;;;;17.80;7.90;;;14.50;99.90;;;;;;5031719;28;20084;-82
2022/05/17 02:21:51;;;;;;;16.45;8.13;;;14.40;99.90;;;;;;5034593;28;20134;-81
2022/05/17 02:24:17;;;;;;;19.80;8.02;;;14.50;99.90;;;;;;5052715;28;20049;-82
2022/05/17 02:26:43;;;;;;;27.20;9.30;;;14.50;99.90;;;;;;5036464;28;20076;-83
2022/05/17 02:29:09;;;;;;;21.13;8.10;;;14.40;99.90;;;;;;5036080;28;20033;-83
2022/05/17 02:31:35;;;;;;;20.52;7.68;;;14.40;99.90;;;;;;5052625;28;20515;-83
2022/05/17 02:34:01;;;;;;;20.42;7.65;;;14.30;99.90;;;;;;5036087;28;20028;-83
2022/05/17 02:36:27;;;;;;;18.73;8.40;;;14.30;99.90;;;;;;5052157;28;20062;-82
2022/05/17 02:38:52;;;;;;;20.40;7.80;;;14.30;99.90;;;;;;5052804;28;20115;-83
2022/05/17 02:41:19;;;;;;;23.87;8.10;;;14.30;99.90;;;;;;5035584;28;20412;-83
2022/05/17 02:43:46;;;;;;;17.80;7.47;;;14.20;99.90;;;;;;5036282;28;20349;-83
2022/05/17 02:46:12;;;;;;;15.40;8.07;;;14.20;99.90;;;;;;5036023;28;20095;-82
2022/05/17 02:48:37;;;;;;;20.00;8.15;;;14.20;99.90;;;;;;5052120;28;20049;-82
2022/05/17 02:51:15;;;;;;;14.77;7.88;;;14.10;99.90;;;;;;5052844;28;20075;-83
2022/05/17 02:53:40;;;;;;;18.30;8.20;;;14.10;99.90;;;;;;5051916;28;20039;-83
2022/05/17 02:56:07;;;;;;;19.70;8.05;;;14.10;99.90;;;;;;5052533;28;20125;-83
2022/05/17 02:58:33;;;;;;;18.88;7.88;;;14.10;99.90;;;;;;5035479;28;20539;-83
2022/05/17 03:00:59;;;;;;;19.88;8.40;;;14.10;99.90;;;;;;5052398;28;20041;-83
2022/05/17 03:03:25;;;;;;;22.23;7.40;;;14.00;99.90;;;;;;5035153;28;20159;-82
2022/05/17 03:05:51;;;;;;;15.55;7.20;;;14.00;99.90;;;;;;5052122;28;20116;-83
2022/05/17 03:08:17;;;;;;;19.75;7.63;;;14.00;99.90;;;;;;5019113;28;20136;-82
2022/05/17 03:10:42;;;;;;;21.67;7.38;;;14.00;99.90;;;;;;5035129;28;20032;-82
2022/05/17 03:13:13;;;;;;;16.77;7.40;;;13.90;99.90;;;;;;5052558;28;20051;-83
2022/05/17 03:15:39;;;;;;;17.55;7.43;;;13.90;99.90;;;;;;5035499;28;20489;-82
2022/05/17 03:18:05;;;;;;;17.17;7.65;;;13.90;99.90;;;;;;5051975;28;20047;-83
2022/05/17 03:20:31;;;;;;;25.08;7.53;;;13.90;99.90;;;;;;5034870;28;20060;-82
2022/05/17 03:22:56;;;;;;;20.40;7.40;;;13.90;99.90;;;;;;5051970;28;20055;-83
2022/05/17 03:25:23;;;;;;;18.42;7.25;;;13.90;99.90;;;;;;5034968;28;20107;-82
2022/05/17 03:27:49;;;;;;;;;;;13.90;99.90;;;;;;5019392;28;20048;-83
2022/05/17 03:30:15;;;;;;;18.05;7.32;;;13.80;99.90;;;;;;5051796;28;19927;-82
2022/05/17 03:32:40;;;;;;;18.30;7.22;;;13.80;99.90;;;;;;5050703;28;20037;-83
2022/05/17 03:35:07;;;;;;;17.88;7.05;;;13.80;99.90;;;;;;5051669;28;20048;-82
2022/05/17 03:37:32;;;;;;;19.88;8.25;;;13.80;99.90;;;;;;5016247;28;20037;-83
2022/05/17 03:39:58;;;;;;;17.65;7.40;;;13.80;99.90;;;;;;5035418;28;20393;-83
2022/05/17 03:42:23;;;;;;;20.35;7.57;;;13.80;99.90;;;;;;5051278;28;20060;-82
2022/05/17 03:44:49;;;;;;;17.38;8.15;;;13.80;99.90;;;;;;5051711;28;20041;-83
2022/05/17 03:47:16;;;;;;;14.35;7.03;;;13.70;99.90;;;;;;5034955;28;20041;-83
2022/05/17 03:49:41;;;;;;;17.00;7.32;;;13.70;99.90;;;;;;5051600;28;20072;-82
2022/05/17 03:52:08;;;;;;;12.75;6.30;;;13.70;99.90;;;;;;5051455;28;20456;-83
2022/05/17 03:54:34;;;;;;;;;;;13.70;99.90;;;;;;5034735;28;20033;-82
2022/05/17 03:57:00;;;;;;;18.73;7.50;;;13.70;99.90;;;;;;5051672;28;20280;-82
2022/05/17 03:59:25;;;;;;;16.67;7.10;;;13.70;99.90;;;;;;5017993;28;20043;-82
2022/05/17 04:01:51;;;;;;;16.23;7.47;;;13.70;99.90;;;;;;5016717;28;20312;-83
2022/05/17 04:04:17;;;;;;;17.70;7.65;;;13.70;99.90;;;;;;5051340;28;20288;-82
2022/05/17 04:06:43;;;;;;;17.70;7.32;;;13.70;99.90;;;;;;5050874;28;20053;-82
2022/05/17 04:09:10;;;;;;;16.15;6.70;;;13.70;99.90;;;;;;5002097;28;20090;-82
2022/05/17 04:11:36;;;;;;;19.92;7.13;;;13.70;99.90;;;;;;5017830;28;20037;-82
2022/05/17 04:14:02;;;;;;;17.10;7.90;;;13.70;99.90;;;;;;5051182;28;20388;-82
2022/05/17 04:16:36;;;;;;;21.63;7.32;;;13.80;99.90;;;;;;5034296;28;20511;-84
2022/05/17 04:19:03;;;;;;;19.95;7.72;;;13.80;99.90;;;;;;5036093;28;20052;-83
2022/05/17 04:21:33;;;;;;;18.00;7.68;;;13.90;99.90;;;;;;5037463;28;20063;-83
2022/05/17 04:23:59;;;;;;;20.25;7.82;;;13.90;99.90;;;;;;5054563;28;20044;-82
2022/05/17 04:26:25;;;;;;;15.43;8.00;;;13.90;99.90;;;;;;5053638;28;20117;-82
2022/05/17 04:28:51;;;;;;;17.50;7.40;;;14.00;99.90;;;;;;5054175;28;20040;-82
2022/05/17 04:31:17;;;;;;;;;;;14.10;99.90;;;;;;5054571;28;20040;-83
2022/05/17 04:33:43;;;;;;;17.02;7.75;;;14.20;99.90;;;;;;5070300;28;19916;-82
2022/05/17 04:36:10;;;;;;;15.70;7.80;;;14.30;99.90;;;;;;5054160;28;20043;-83
2022/05/17 04:38:36;;;;;;;18.83;7.70;;;14.40;99.90;;;;;;5053543;28;20044;-82
2022/05/17 04:41:03;;;;;;;19.50;7.63;;;14.50;99.90;;;;;;5037157;28;20078;-83
2022/05/17 04:43:29;;;;;;;18.35;7.82;;;14.60;99.90;;;;;;5020724;28;20036;-84
2022/05/17 04:45:56;;;;;;;17.63;7.18;;;14.70;99.90;;;;;;5038155;28;20048;-84
2022/05/17 04:48:24;;;;;;;18.60;7.25;;;14.80;99.90;;;;;;5005982;28;20449;-81
2022/05/17 04:50:50;;;;;;;17.88;7.50;;;14.90;99.90;;;;;;5054326;28;20754;-84
2022/05/17 04:53:16;;;;;;;18.05;6.85;;;15.00;99.90;;;;;;5004082;28;20516;-85
2022/05/17 04:55:42;;;;;;;;;;;15.00;99.90;;;;;;5037602;28;20036;-84
2022/05/17 04:58:08;;;;;;;13.65;7.10;;;15.00;99.90;;;;;;5054010;28;19969;-84
2022/05/17 05:00:34;;;;;;;16.48;7.47;;;15.10;99.90;;;;;;5036815;28;20511;-84
2022/05/17 05:03:00;;;;;;;16.67;7.45;;;15.20;99.90;;;;;;5054461;28;20496;-85
2022/05/17 05:05:27;;;;;;;14.07;6.82;;;15.20;99.90;;;;;;5037226;28;20097;-83
2022/05/17 05:07:53;;;;;;;12.88;6.55;;;15.20;99.90;;;;;;5021044;28;20115;-84
2022/05/17 05:10:19;;;;;;;18.30;7.22;;;15.30;99.90;;;;;;5020636;28;20500;-85
2022/05/17 05:12:45;;;;;;;19.20;7.07;;;15.30;99.90;;;;;;5053574;28;20081;-84
2022/05/17 05:15:12;;;;;;;14.55;6.88;;;15.30;99.90;;;;;;5054087;28;20090;-84
2022/05/17 05:17:38;;;;;;;17.45;6.60;;;15.20;99.90;;;;;;5037517;28;20395;-84
2022/05/17 05:20:07;;;;;;;17.95;7.13;;;15.20;99.90;;;;;;5046675;28;20070;-84
2022/05/17 05:22:33;;;;;;;14.98;6.40;;;15.20;99.90;;;;;;5037535;28;20102;-84
2022/05/17 05:25:00;;;;;;;19.52;6.68;;;15.30;99.90;;;;;;5037216;28;20086;-85
2022/05/17 05:27:29;;;;;;;14.98;6.72;;;15.30;99.90;;;;;;5053667;28;20083;-85
2022/05/17 05:29:55;;;;;;;21.20;7.22;;;15.30;99.90;;;;;;5053898;28;20058;-84
2022/05/17 05:32:21;;;;;;;19.45;7.30;;;15.40;99.90;;;;;;5037270;28;20040;-84
2022/05/17 05:34:46;;;;;;;15.40;6.32;;;15.50;99.90;;;;;;5053567;28;20053;-85
2022/05/17 05:37:12;;;;;;;14.23;6.17;;;15.60;99.90;;;;;;5021177;28;20036;-83
2022/05/17 05:39:38;;;;;;;12.60;6.30;;;15.50;99.90;;;;;;5037235;28;20279;-85
2022/05/17 05:42:05;;;;;;;20.08;6.75;;;15.60;99.90;;;;;;5037356;28;20416;-84
2022/05/17 05:44:33;;;;;;;17.13;7.25;;;15.80;99.90;;;;;;5053359;28;20075;-84
2022/05/17 05:46:59;;;;;;;14.85;5.95;;;15.90;99.90;;;;;;5053677;28;20131;-85
2022/05/17 05:49:24;;;;;;;18.52;6.68;;;16.10;99.90;;;;;;5037126;28;20116;-84
2022/05/17 05:51:50;;;;;;;12.90;6.22;;;16.30;99.90;;;;;;5037193;28;20036;-84
2022/05/17 05:54:17;;;;;;;13.85;6.00;;;16.50;99.90;;;;;;5037078;28;20040;-85
2022/05/17 05:56:42;;;;;;;;;;;16.80;99.90;;;;;;5003063;28;20076;-84
2022/05/17 05:59:08;;;;;;;14.10;4.95;;;17.10;99.90;;;;;;5041649;28;19951;-84
2022/05/17 06:01:35;;;;;;;12.52;5.40;;;17.40;99.90;;;;;;5057982;28;20048;-84
2022/05/17 06:04:01;;;;;;;11.88;4.80;;;17.90;99.90;;;;;;5008466;28;20028;-84
2022/05/17 06:06:27;;;;;;;16.02;5.03;;;18.20;99.90;;;;;;5041370;28;20055;-84
2022/05/17 06:08:53;;;;;;;12.43;4.70;;;18.20;99.90;;;;;;5025108;28;20028;-83
2022/05/17 06:11:19;;;;;;;13.35;4.30;;;18.20;99.90;;;;;;5025423;28;20039;-84
2022/05/17 06:13:44;;;;;;;16.73;5.13;;;18.10;99.90;;;;;;5057623;28;20033;-84
2022/05/17 06:16:10;;;;;;;12.45;4.40;;;18.30;99.90;;;;;;5057723;28;20389;-84
2022/05/17 06:18:36;;;;;;;13.32;4.35;;;18.50;99.90;;;;;;5008418;28;20071;-84
2022/05/17 06:21:03;;;;;;;12.50;4.63;;;18.80;99.90;;;;;;5057849;28;20149;-84
2022/05/17 06:23:29;;;;;;;11.57;4.10;;;19.10;99.90;;;;;;5041250;28;20512;-83
2022/05/17 06:25:55;;;;;;;;;;;19.30;99.90;;;;;;5058397;28;20075;-84
2022/05/17 06:28:21;;;;;;;10.45;4.45;;;19.60;99.90;;;;;;5024034;28;19959;-84
2022/05/17 06:30:47;;;;;;;11.60;4.50;;;19.80;99.90;;;;;;5039757;28;20153;-85
2022/05/17 06:33:15;;;;;;;9.93;3.90;;;19.80;99.90;;;;;;5024608;28;20123;-84
2022/05/17 06:35:42;;;;;;;12.80;4.22;;;19.90;99.90;;;;;;5040083;28;20045;-84
2022/05/17 06:38:08;;;;;;;13.50;3.78;;;19.90;99.90;;;;;;5040759;28;20033;-84
2022/05/17 06:40:35;;;;;;;10.77;3.70;;;19.90;99.90;;;;;;5040137;28;20036;-83
2022/05/17 06:43:00;;;;;;;13.48;4.50;;;20.00;99.90;;;;;;5040606;28;20373;-84
2022/05/17 06:45:27;;;;;;;14.60;4.30;;;20.20;99.90;;;;;;5040141;28;20039;-84
2022/05/17 06:47:52;;;;;;;11.07;3.28;;;20.30;99.90;;;;;;5023494;28;20044;-84
2022/05/17 06:50:18;;;;;;;10.15;3.92;;;20.40;99.90;;;;;;5023904;28;20055;-83
2022/05/17 06:52:44;;;;;;;12.68;3.85;;;20.30;99.90;;;;;;5056588;28;20049;-84
2022/05/17 06:55:11;;;;;;;;;;;20.30;99.90;;;;;;5057054;28;20048;-84
2022/05/17 06:57:37;;;;;;;13.07;3.70;;;20.20;99.90;;;;;;5056429;28;19965;-83
2022/05/17 07:00:05;;;;;;;;;;;20.20;99.90;;;;;;5057418;28;20033;-84
2022/05/17 07:02:32;;;;;;;12.73;3.42;;;20.50;99.90;;;;;;5040542;28;19938;-84
2022/05/17 07:04:59;;;;;;;11.32;3.35;;;20.70;99.90;;;;;;5056953;28;20046;-84
2022/05/17 07:07:26;;;;;;;10.95;3.22;;;21.00;99.90;;;;;;5038836;28;20526;-84
2022/05/17 07:15:21;;;;;;;12.50;3.90;;;21.20;99.90;;;;;;5042148;28;20036;-84
2022/05/17 07:17:47;;;;;;;12.65;3.35;;;21.40;99.90;;;;;;5056055;28;20045;-84
2022/05/17 07:20:14;;;;;;;10.55;3.00;;;21.70;99.90;;;;;;5039324;28;20063;-84
2022/05/17 07:22:40;;;;;;;10.27;2.90;;;21.70;99.90;;;;;;5039191;28;20040;-84
2022/05/17 07:25:06;;;;;;;13.65;2.72;;;21.60;99.90;;;;;;5039738;28;20556;-84
2022/05/17 07:27:32;;;;;;;8.98;2.53;;;22.00;99.90;;;;;;5039601;28;20048;-82
2022/05/17 07:29:58;;;;;;;;;;;22.30;99.90;;;;;;5056269;28;20476;-84
2022/05/17 07:32:23;;;;;;;10.73;2.55;;;22.10;99.90;;;;;;5039770;28;19920;-84
2022/05/17 07:34:49;;;;;;;10.77;2.75;;;22.20;99.90;;;;;;5039211;28;20530;-84
2022/05/17 07:37:16;;;;;;;9.32;3.33;;;22.30;99.90;;;;;;5022951;28;20072;-84
2022/05/17 07:39:41;;;;;;;9.05;3.25;;;22.30;99.90;;;;;;5055491;28;20094;-84
2022/05/17 07:42:07;;;;;;;;;;;22.40;99.90;;;;;;5056243;28;20045;-84
2022/05/17 07:44:34;;;;;;;8.90;2.80;;;22.60;99.90;;;;;;5055509;28;20012;-84
2022/05/17 07:47:01;;;;;;;9.20;3.05;;;22.80;99.90;;;;;;5038683;28;20043;-85
2022/05/17 07:49:27;;;;;;;10.60;3.60;;;23.10;99.90;;;;;;5022742;28;20462;-84
2022/05/17 07:51:52;;;;;;;11.23;2.88;;;23.00;99.90;;;;;;5051083;28;20460;-84
2022/05/17 07:54:18;;;;;;;;;;;23.10;99.90;;;;;;5055726;28;20048;-83
2022/05/17 07:56:44;;;;;;;6.32;2.58;;;23.20;99.90;;;;;;5055013;28;19958;-83
2022/05/17 07:59:10;;;;;;;;;;;23.20;99.90;;;;;;5003845;28;20037;-83
2022/05/17 08:01:35;;;;;;;9.95;2.30;;;23.30;99.90;;;;;;5053614;28;20126;-83
2022/05/17 08:04:02;;;;;;;;;;;23.50;99.90;;;;;;5055626;28;20040;-84
2022/05/17 08:06:28;;;;;;;11.87;2.80;;;23.70;99.90;;;;;;5055401;28;20498;-83
2022/05/17 08:08:53;;;;;;;;;;;23.70;99.90;;;;;;5055510;28;20358;-83
2022/05/17 08:11:19;;;;;;;8.75;2.65;;;24.00;99.90;;;;;;5055187;28;19923;-83
2022/05/17 08:13:45;;;;;;;;;;;23.80;99.90;;;;;;5055512;28;20032;-84
2022/05/17 08:16:10;;;;;;;12.30;3.20;;;24.10;99.90;;;;;;5021992;28;19923;-84
2022/05/17 08:18:36;;;;;;;7.57;2.50;;;24.10;99.90;;;;;;5021767;28;20032;-84
2022/05/17 08:21:02;;;;;;;8.10;2.72;;;24.20;99.90;;;;;;5054189;28;20044;-83
2022/05/17 08:23:27;;;;;;;10.52;3.38;;;24.20;99.90;;;;;;5038162;28;20158;-83
2022/05/17 08:28:37;;;;;;;9.35;3.60;;;24.40;99.90;;;;;;5040370;28;19986;-84
2022/05/17 08:31:03;;;;;;;11.60;3.45;;;24.70;99.90;;;;;;5055174;28;20121;-83
2022/05/17 08:33:30;;;;;;;9.60;3.10;;;25.00;99.90;;;;;;5054446;28;20050;-84
2022/05/17 08:36:01;;;;;;;8.50;3.00;;;25.50;99.90;;;;;;5054384;28;20048;-83
2022/05/17 08:38:45;;;;;;;11.15;3.08;;;25.50;99.90;;;;;;5037464;28;20037;-83
2022/05/17 08:41:22;;;;;;;9.00;2.80;;;25.60;99.90;;;;;;5052204;28;20049;-84
2022/05/17 08:43:54;;;;;;;9.32;2.83;;;25.80;99.90;;;;;;5051684;28;20037;-84
2022/05/17 08:46:42;;;;;;;7.63;2.50;;;26.00;99.90;;;;;;5053984;28;20131;-83
2022/05/17 08:49:25;;;;;;;8.27;2.70;;;26.00;99.90;;;;;;5052401;28;20032;-84
2022/05/17 08:51:56;;;;;;;7.53;2.70;;;26.20;99.90;;;;;;5037352;28;20469;-83
2022/05/17 08:54:31;;;;;;;10.35;3.28;;;26.00;99.90;;;;;;5051745;28;20028;-83
2022/05/17 08:57:22;;;;;;;9.45;2.90;;;26.30;99.90;;;;;;5053592;28;20109;-83
2022/05/17 08:59:48;;;;;;;7.20;2.88;;;26.10;99.90;;;;;;5050027;28;20109;-84
2022/05/17 09:02:24;;;;;;;9.85;2.80;;;26.00;99.90;;;;;;5053757;28;20060;-84
2022/05/17 09:05:22;;;;;;;9.32;2.85;;;26.00;99.90;;;;;;5053222;28;20047;-83
2022/05/17 09:07:59;;;;;;;10.63;2.75;;;25.90;99.90;;;;;;5052855;28;20040;-84
2022/05/17 09:10:32;;;;;;;8.48;2.20;;;26.10;99.90;;;;;;5036844;28;20079;-83
2022/05/17 09:13:31;;;;;;;8.38;3.10;;;26.30;99.90;;;;;;5053296;28;20126;-84
2022/05/17 09:15:59;;;;;;;8.65;2.67;;;26.50;99.90;;;;;;5048431;28;20047;-84
2022/05/17 09:18:26;;;;;;;8.27;2.50;;;26.60;99.90;;;;;;5050904;28;20045;-84
2022/05/17 09:20:52;;;;;;;6.43;1.58;;;27.00;99.90;;;;;;5052719;28;20052;-84
2022/05/17 09:23:18;;;;;;;9.00;2.20;;;26.90;99.90;;;;;;5053333;28;20543;-83
2022/05/17 09:25:58;;;;;;;7.70;2.50;;;26.80;99.90;;;;;;5053114;28;20083;-83
2022/05/17 09:28:27;;;;;;;5.72;1.95;;;27.10;99.90;;;;;;5036621;28;20048;-83
2022/05/17 09:31:13;;;;;;;8.45;2.15;;;27.10;99.90;;;;;;5036083;28;20029;-83
2022/05/17 09:33:40;;;;;;;7.45;2.25;;;26.80;99.90;;;;;;5052859;28;20033;-83
2022/05/17 09:36:08;;;;;;;5.88;1.95;;;26.90;99.90;;;;;;5053373;28;20568;-83
2022/05/17 09:38:40;;;;;;;6.68;1.70;;;27.00;99.90;;;;;;5053284;28;20550;-84
2022/05/17 09:41:09;;;;;;;4.50;2.00;;;27.40;99.30;;;;;;5050621;28;20064;-83
2022/05/17 09:43:55;;;;;;;7.20;2.15;;;27.50;98.90;;;;;;5052816;28;20060;-84
2022/05/17 09:46:36;;;;;;;8.57;2.33;;;27.70;98.80;;;;;;5050385;28;20037;-82
2022/05/17 09:52:32;;;;;;;6.22;1.90;;;28.20;98.40;;;;;;5051157;28;20040;-83
2022/05/17 09:55:21;;;;;;;7.13;1.60;;;28.60;98.80;;;;;;5036426;28;20112;-84
2022/05/17 09:57:53;;;;;;;5.32;1.75;;;28.70;97.60;;;;;;5036323;28;20063;-83
2022/05/17 10:00:27;;;;;;;5.53;1.73;;;28.80;97.00;;;;;;5053132;28;20041;-83
2022/05/17 10:03:00;;;;;;;6.13;2.30;;;28.60;96.40;;;;;;5034426;28;20044;-84
2022/05/17 10:05:38;;;;;;;7.45;2.08;;;29.00;96.40;;;;;;5033733;28;20037;-83
2022/05/17 10:08:42;;;;;;;7.65;2.08;;;29.10;97.20;;;;;;5035964;28;20040;-84
2022/05/17 10:11:25;;;;;;;6.38;1.77;;;29.20;96.10;;;;;;5032306;28;20036;-84
2022/05/17 10:14:33;;;;;;;9.27;2.08;;;29.50;96.50;;;;;;5052638;28;20033;-82
2022/05/17 10:17:04;;;;;;;6.43;1.75;;;29.90;95.20;;;;;;5020655;28;20056;-83
2022/05/17 10:20:01;;;;;;;7.28;1.80;;;29.90;94.90;;;;;;5052165;28;20067;-83
2022/05/17 10:22:30;;;;;;;;;;;29.60;94.80;;;;;;5029552;28;20047;-84
2022/05/17 10:25:05;;;;;;;6.72;1.80;;;29.50;94.20;;;;;;5052641;28;19923;-84
2022/05/17 10:27:37;;;;;;;7.93;2.42;;;29.70;93.90;;;;;;5050716;28;20059;-84
2022/05/17 10:30:31;;;;;;;7.07;2.03;;;29.70;94.20;;;;;;5052346;28;20130;-83
2022/05/17 10:33:05;;;;;;;6.10;2.00;;;29.70;93.80;;;;;;5051622;28;20082;-84
2022/05/17 10:35:38;;;;;;;3.70;1.35;;;30.20;93.60;;;;;;5052689;28;20454;-84
2022/05/17 10:38:25;;;;;;;6.20;1.70;;;30.30;92.10;;;;;;5052963;28;20041;-83
2022/05/17 10:40:53;;;;;;;6.57;1.80;;;30.20;91.80;;;;;;5052208;28;20048;-83
2022/05/17 10:43:25;;;;;;;8.80;2.08;;;30.30;92.50;;;;;;5052546;28;20112;-83
2022/05/17 10:46:06;;;;;;;5.68;1.70;;;30.70;92.10;;;;;;5055821;28;20043;-82
2022/05/17 10:48:50;;;;;;;3.90;1.30;;;30.30;92.50;;;;;;5056063;28;20045;-82
2022/05/17 10:51:26;;;;;;;6.25;1.55;;;30.00;91.00;;;;;;5054177;28;20032;-83
2022/05/17 10:54:18;;;;;;;6.18;1.42;;;30.00;91.30;;;;;;5053472;28;20040;-83
2022/05/17 10:57:17;;;;;;;6.65;1.45;;;30.20;91.80;;;;;;5055839;28;20611;-83
2022/05/17 10:59:55;;;;;;;5.65;1.60;;;30.20;91.30;;;;;;5000898;28;20491;-83
2022/05/17 11:02:44;;;;;;;5.82;1.20;;;30.50;91.40;;;;;;5038174;28;20040;-83
2022/05/17 11:05:43;;;;;;;7.05;1.90;;;30.50;90.80;;;;;;5005338;28;20084;-83
2022/05/17 11:08:42;;;;;;;8.35;1.25;;;30.60;89.50;;;;;;5054741;28;20127;-83
2022/05/17 11:11:17;;;;;;;4.43;1.63;;;31.00;90.00;;;;;;5055290;28;20036;-83
2022/05/17 11:13:43;;;;;;;7.38;1.60;;;30.90;88.80;;;;;;5039182;28;20115;-83
2022/05/17 11:16:28;;;;;;;3.65;1.08;;;31.00;89.40;;;;;;5055404;28;20116;-83
2022/05/17 11:19:42;;;;;;;6.43;1.10;;;31.40;87.30;;;;;;5070845;28;20115;-83
2022/05/17 11:22:15;;;;;;;7.38;1.30;;;31.40;85.30;;;;;;5061114;28;20055;-83
2022/05/17 11:24:55;;;;;;;5.53;1.08;;;31.70;86.00;;;;;;5055489;28;20032;-84
2022/05/17 11:27:31;;;;;;;4.07;1.00;;;31.30;82.00;;;;;;5036299;28;20033;-83
2022/05/17 11:30:05;;;;;;;5.50;1.25;;;31.50;84.70;;;;;;5055045;28;20102;-83
2022/05/17 11:32:33;;;;;;;4.18;1.00;;;31.60;84.60;;;;;;5038864;28;20443;-84
2022/05/17 11:35:03;;;;;;;4.68;1.20;;;31.80;84.40;;;;;;5055352;28;20443;-83
2022/05/17 11:37:37;;;;;;;5.82;1.50;;;31.90;83.60;;;;;;5055384;28;20400;-83
2022/05/17 11:40:07;;;;;;;6.97;1.70;;;31.70;84.50;;;;;;5070389;28;20036;-83
2022/05/17 11:43:40;;;;;;;6.55;1.40;;;31.30;82.80;;;;;;5038281;28;20044;-84
2022/05/17 11:45:44;;;;;;;5.10;1.10;;;30.90;82.30;;;;;;5054557;28;20125;-83
2022/05/17 11:48:46;;;;;;;6.45;1.35;;;31.00;83.60;;;;;;5050022;28;20101;-84
2022/05/17 11:51:12;;;;;;;4.68;1.27;;;31.30;83.00;;;;;;5036999;28;20496;-83
2022/05/17 11:53:54;;;;;;;4.88;1.02;;;31.40;82.10;;;;;;5037682;28;20035;-83
2022/05/17 11:56:25;;;;;;;5.80;1.30;;;31.40;81.50;;;;;;5054717;28;20396;-84
2022/05/17 11:59:29;;;;;;;6.68;1.45;;;31.30;82.50;;;;;;5038481;28;20033;-84
2022/05/17 12:02:09;;;;;;;4.65;1.10;;;31.90;83.40;;;;;;5021231;28;20052;-84
2022/05/17 12:04:44;;;;;;;4.93;1.00;;;32.00;83.30;;;;;;5038004;28;20064;-83
2022/05/17 12:07:20;;;;;;;6.57;1.40;;;31.80;83.00;;;;;;5037710;28;20124;-83
2022/05/17 12:09:50;;;;;;;;;;;31.90;81.40;;;;;;5054142;28;20056;-84
2022/05/17 12:12:32;;;;;;;4.43;1.27;;;32.20;81.60;;;;;;5083241;28;19916;-84
2022/05/17 12:15:10;;;;;;;3.35;1.05;;;32.20;82.10;;;;;;5052886;28;20508;-83
2022/05/17 12:17:46;;;;;;;4.82;0.80;;;32.00;78.20;;;;;;5052652;28;20044;-83
2022/05/17 12:20:40;;;;;;;5.35;0.93;;;31.90;76.80;;;;;;5035478;28;20127;-83
2022/05/17 12:23:28;;;;;;;4.70;1.08;;;32.00;76.90;;;;;;5051895;28;20045;-84
2022/05/17 12:26:05;;;;;;;4.30;0.80;;;32.10;78.00;;;;;;5086656;28;20049;-83
2022/05/17 12:28:38;;;;;;;4.40;1.00;;;31.90;76.30;;;;;;5053014;28;20036;-83
2022/05/17 12:31:12;;;;;;;4.32;1.05;;;32.00;76.90;;;;;;5052190;28;20033;-83
2022/05/17 12:33:45;;;;;;;5.72;1.10;;;32.00;77.70;;;;;;5054113;28;20044;-83
2022/05/17 12:36:21;;;;;;;5.35;1.20;;;32.00;78.30;;;;;;5053975;28;20051;-82
2022/05/17 12:44:50;;;;;;;3.83;0.90;;;32.40;76.90;;;;;;5052873;28;20476;-84
2022/05/17 12:47:37;;;;;;;5.38;1.15;;;32.30;77.80;;;;;;5052002;28;20868;-83
2022/05/17 12:50:04;;;;;;;4.95;1.30;;;32.30;76.30;;;;;;5052853;28;20119;-83
2022/05/17 12:52:36;;;;;;;5.82;1.25;;;32.10;75.80;;;;;;5051764;28;20052;-82
2022/05/17 12:55:08;;;;;;;5.05;0.90;;;32.20;77.50;;;;;;5053526;28;20032;-84
2022/05/17 12:57:38;;;;;;;5.55;1.00;;;32.40;78.20;;;;;;5036154;28;20068;-83
2022/05/17 13:00:24;;;;;;;4.75;1.13;;;32.60;77.60;;;;;;5053616;28;20123;-83
2022/05/17 13:02:56;;;;;;;4.18;1.23;;;32.60;75.80;;;;;;5051983;28;20037;-83
2022/05/17 13:05:29;;;;;;;4.75;0.93;;;32.80;74.60;;;;;;5053717;28;20040;-84
2022/05/17 13:08:00;;;;;;;4.20;0.90;;;32.40;74.60;;;;;;5053861;28;20399;-84
2022/05/17 13:10:26;;;;;;;4.45;0.88;;;32.60;75.70;;;;;;5035438;28;20454;-84
2022/05/17 13:12:51;;;;;;;3.97;1.13;;;32.50;74.50;;;;;;5020765;28;20028;-83
2022/05/17 13:15:17;;;;;;;4.30;1.23;;;32.40;74.90;;;;;;5019255;28;20060;-83
2022/05/17 13:17:45;;;;;;;8.15;1.33;;;32.30;75.00;;;;;;5037174;28;20029;-83
2022/05/17 13:20:25;;;;;;;4.20;0.82;;;31.80;74.50;;;;;;5052934;28;20053;-83
2022/05/17 13:22:54;;;;;;;4.18;0.90;;;31.90;74.90;;;;;;5052277;28;20040;-84